sensor_id;sensor_type;location;lat;lon;timestamp;P1;durP1;ratioP1;P2;durP2;ratioP2
22248;SDS011;67538;52.180;5.646;2023-08-20T00:01:07;23.30;;;16.95;;
22248;SDS011;67538;52.180;5.646;2023-08-20T00:03:41;24.98;;;17.33;;
22248;SDS011;67538;52.180;5.646;2023-08-20T00:06:09;30.05;;;17.08;;
22248;SDS011;67538;52.180;5.646;2023-08-20T00:08:36;29.00;;;16.40;;
22248;SDS011;67538;52.180;5.646;2023-08-20T00:11:03;26.95;;;17.10;;
22248;SDS011;67538;52.180;5.646;2023-08-20T00:13:31;24.25;;;15.82;;
22248;SDS011;67538;52.180;5.646;2023-08-20T00:15:58;27.77;;;16.08;;
22248;SDS011;67538;52.180;5.646;2023-08-20T00:18:27;25.53;;;15.97;;
22248;SDS011;67538;52.180;5.646;2023-08-20T00:20:54;26.33;;;15.27;;
22248;SDS011;67538;52.180;5.646;2023-08-20T00:23:22;23.70;;;15.75;;
22248;SDS011;67538;52.180;5.646;2023-08-20T00:25:50;24.70;;;15.60;;
22248;SDS011;67538;52.180;5.646;2023-08-20T00:28:18;22.42;;;15.00;;
22248;SDS011;67538;52.180;5.646;2023-08-20T00:30:45;25.20;;;15.67;;
22248;SDS011;67538;52.180;5.646;2023-08-20T00:33:14;24.02;;;15.20;;
22248;SDS011;67538;52.180;5.646;2023-08-20T00:35:42;21.50;;;14.88;;
22248;SDS011;67538;52.180;5.646;2023-08-20T00:38:09;20.50;;;13.85;;
22248;SDS011;67538;52.180;5.646;2023-08-20T00:40:36;22.30;;;13.95;;
22248;SDS011;67538;52.180;5.646;2023-08-20T00:43:03;17.60;;;13.45;;
22248;SDS011;67538;52.180;5.646;2023-08-20T00:45:31;18.42;;;12.93;;
22248;SDS011;67538;52.180;5.646;2023-08-20T00:47:58;22.10;;;14.30;;
22248;SDS011;67538;52.180;5.646;2023-08-20T00:50:25;22.87;;;14.13;;
22248;SDS011;67538;52.180;5.646;2023-08-20T00:52:54;21.13;;;14.23;;
22248;SDS011;67538;52.180;5.646;2023-08-20T00:55:21;24.25;;;15.45;;
22248;SDS011;67538;52.180;5.646;2023-08-20T00:57:48;22.98;;;13.63;;
22248;SDS011;67538;52.180;5.646;2023-08-20T01:00:15;18.35;;;13.30;;
22248;SDS011;67538;52.180;5.646;2023-08-20T01:02:43;22.13;;;15.35;;
22248;SDS011;67538;52.180;5.646;2023-08-20T01:05:10;21.23;;;15.30;;
22248;SDS011;67538;52.180;5.646;2023-08-20T01:07:41;25.80;;;15.33;;
22248;SDS011;67538;52.180;5.646;2023-08-20T01:10:18;22.35;;;16.35;;
22248;SDS011;67538;52.180;5.646;2023-08-20T01:12:47;26.83;;;16.10;;
22248;SDS011;67538;52.180;5.646;2023-08-20T01:15:16;26.25;;;16.30;;
22248;SDS011;67538;52.180;5.646;2023-08-20T01:17:43;25.38;;;16.17;;
22248;SDS011;67538;52.180;5.646;2023-08-20T01:20:11;26.80;;;16.67;;
22248;SDS011;67538;52.180;5.646;2023-08-20T01:25:45;22.45;;;16.23;;
22248;SDS011;67538;52.180;5.646;2023-08-20T01:28:27;21.58;;;15.07;;
22248;SDS011;67538;52.180;5.646;2023-08-20T01:30:55;19.70;;;14.90;;
22248;SDS011;67538;52.180;5.646;2023-08-20T01:33:24;20.20;;;15.10;;
22248;SDS011;67538;52.180;5.646;2023-08-20T01:35:51;25.02;;;16.75;;
22248;SDS011;67538;52.180;5.646;2023-08-20T01:38:19;24.85;;;16.65;;
22248;SDS011;67538;52.180;5.646;2023-08-20T01:40:46;23.67;;;17.17;;
22248;SDS011;67538;52.180;5.646;2023-08-20T01:43:13;26.23;;;18.63;;
22248;SDS011;67538;52.180;5.646;2023-08-20T01:45:41;29.38;;;20.75;;
22248;SDS011;67538;52.180;5.646;2023-08-20T01:48:09;28.80;;;19.65;;
22248;SDS011;67538;52.180;5.646;2023-08-20T01:50:36;28.15;;;19.63;;
22248;SDS011;67538;52.180;5.646;2023-08-20T01:53:04;29.37;;;20.37;;
22248;SDS011;67538;52.180;5.646;2023-08-20T01:55:31;27.80;;;19.83;;
22248;SDS011;67538;52.180;5.646;2023-08-20T01:57:58;28.63;;;19.45;;
22248;SDS011;67538;52.180;5.646;2023-08-20T02:00:25;28.23;;;19.30;;
22248;SDS011;67538;52.180;5.646;2023-08-20T02:02:55;30.63;;;19.17;;
22248;SDS011;67538;52.180;5.646;2023-08-20T02:05:22;28.67;;;18.45;;
22248;SDS011;67538;52.180;5.646;2023-08-20T02:07:49;23.63;;;17.00;;
22248;SDS011;67538;52.180;5.646;2023-08-20T02:10:16;28.90;;;18.05;;
22248;SDS011;67538;52.180;5.646;2023-08-20T02:12:43;28.48;;;17.77;;
22248;SDS011;67538;52.180;5.646;2023-08-20T02:15:10;27.65;;;17.80;;
22248;SDS011;67538;52.180;5.646;2023-08-20T02:17:37;20.98;;;16.23;;
22248;SDS011;67538;52.180;5.646;2023-08-20T02:20:06;18.20;;;15.40;;
22248;SDS011;67538;52.180;5.646;2023-08-20T02:22:35;23.35;;;16.15;;
22248;SDS011;67538;52.180;5.646;2023-08-20T02:25:02;23.60;;;16.73;;
22248;SDS011;67538;52.180;5.646;2023-08-20T02:27:30;25.55;;;17.17;;
22248;SDS011;67538;52.180;5.646;2023-08-20T02:29:57;27.73;;;17.48;;
22248;SDS011;67538;52.180;5.646;2023-08-20T02:32:25;24.48;;;16.50;;
22248;SDS011;67538;52.180;5.646;2023-08-20T02:34:52;22.30;;;16.60;;
22248;SDS011;67538;52.180;5.646;2023-08-20T02:37:21;21.25;;;16.50;;
22248;SDS011;67538;52.180;5.646;2023-08-20T02:39:48;27.85;;;16.83;;
22248;SDS011;67538;52.180;5.646;2023-08-20T02:42:15;25.38;;;16.67;;
22248;SDS011;67538;52.180;5.646;2023-08-20T02:44:42;21.58;;;16.83;;
22248;SDS011;67538;52.180;5.646;2023-08-20T02:47:09;27.83;;;16.65;;
22248;SDS011;67538;52.180;5.646;2023-08-20T02:49:36;21.13;;;14.83;;
22248;SDS011;67538;52.180;5.646;2023-08-20T02:52:03;21.10;;;15.30;;
22248;SDS011;67538;52.180;5.646;2023-08-20T02:54:32;25.40;;;15.50;;
22248;SDS011;67538;52.180;5.646;2023-08-20T02:56:59;20.65;;;15.05;;
22248;SDS011;67538;52.180;5.646;2023-08-20T02:59:26;19.67;;;14.32;;
22248;SDS011;67538;52.180;5.646;2023-08-20T03:01:53;23.70;;;15.60;;
22248;SDS011;67538;52.180;5.646;2023-08-20T03:04:20;23.60;;;15.10;;
22248;SDS011;67538;52.180;5.646;2023-08-20T03:06:47;24.43;;;15.87;;
22248;SDS011;67538;52.180;5.646;2023-08-20T03:09:14;20.20;;;15.00;;
22248;SDS011;67538;52.180;5.646;2023-08-20T03:11:42;23.88;;;15.90;;
22248;SDS011;67538;52.180;5.646;2023-08-20T03:14:09;31.65;;;16.00;;
22248;SDS011;67538;52.180;5.646;2023-08-20T03:16:36;26.27;;;16.13;;
22248;SDS011;67538;52.180;5.646;2023-08-20T03:19:04;25.52;;;15.80;;
22248;SDS011;67538;52.180;5.646;2023-08-20T03:21:31;21.58;;;15.50;;
22248;SDS011;67538;52.180;5.646;2023-08-20T03:23:58;24.07;;;15.30;;
22248;SDS011;67538;52.180;5.646;2023-08-20T03:26:25;23.97;;;15.50;;
22248;SDS011;67538;52.180;5.646;2023-08-20T03:28:53;21.63;;;15.00;;
22248;SDS011;67538;52.180;5.646;2023-08-20T03:31:20;26.20;;;14.70;;
22248;SDS011;67538;52.180;5.646;2023-08-20T03:33:48;16.38;;;12.23;;
22248;SDS011;67538;52.180;5.646;2023-08-20T03:36:14;11.35;;;8.32;;
22248;SDS011;67538;52.180;5.646;2023-08-20T03:38:42;10.43;;;8.50;;
22248;SDS011;67538;52.180;5.646;2023-08-20T03:41:09;11.50;;;10.00;;
22248;SDS011;67538;52.180;5.646;2023-08-20T03:43:36;17.30;;;11.45;;
22248;SDS011;67538;52.180;5.646;2023-08-20T03:46:04;18.48;;;10.50;;
22248;SDS011;67538;52.180;5.646;2023-08-20T03:48:31;20.15;;;12.07;;
22248;SDS011;67538;52.180;5.646;2023-08-20T03:50:58;23.10;;;12.68;;
22248;SDS011;67538;52.180;5.646;2023-08-20T03:53:25;21.92;;;13.02;;
22248;SDS011;67538;52.180;5.646;2023-08-20T03:55:52;16.45;;;11.70;;
22248;SDS011;67538;52.180;5.646;2023-08-20T03:58:19;15.57;;;11.07;;
22248;SDS011;67538;52.180;5.646;2023-08-20T04:00:46;16.27;;;10.82;;
22248;SDS011;67538;52.180;5.646;2023-08-20T04:03:15;17.15;;;11.30;;
22248;SDS011;67538;52.180;5.646;2023-08-20T04:05:44;14.93;;;10.70;;
22248;SDS011;67538;52.180;5.646;2023-08-20T04:08:11;19.53;;;11.50;;
22248;SDS011;67538;52.180;5.646;2023-08-20T04:10:42;16.05;;;11.13;;
22248;SDS011;67538;52.180;5.646;2023-08-20T04:13:10;16.25;;;10.88;;
22248;SDS011;67538;52.180;5.646;2023-08-20T04:15:39;18.48;;;11.77;;
22248;SDS011;67538;52.180;5.646;2023-08-20T04:18:06;15.63;;;12.00;;
22248;SDS011;67538;52.180;5.646;2023-08-20T04:20:36;21.65;;;11.80;;
22248;SDS011;67538;52.180;5.646;2023-08-20T04:23:03;22.00;;;12.90;;
22248;SDS011;67538;52.180;5.646;2023-08-20T04:25:30;20.02;;;12.82;;
22248;SDS011;67538;52.180;5.646;2023-08-20T04:27:57;16.58;;;11.90;;
22248;SDS011;67538;52.180;5.646;2023-08-20T04:30:25;17.83;;;12.23;;
22248;SDS011;67538;52.180;5.646;2023-08-20T04:32:52;18.63;;;11.43;;
22248;SDS011;67538;52.180;5.646;2023-08-20T04:35:19;16.92;;;11.50;;
22248;SDS011;67538;52.180;5.646;2023-08-20T04:37:47;17.85;;;12.00;;
22248;SDS011;67538;52.180;5.646;2023-08-20T04:40:14;21.10;;;11.90;;
22248;SDS011;67538;52.180;5.646;2023-08-20T04:42:41;20.93;;;11.70;;
22248;SDS011;67538;52.180;5.646;2023-08-20T04:45:08;17.35;;;11.07;;
22248;SDS011;67538;52.180;5.646;2023-08-20T04:47:36;22.83;;;11.32;;
22248;SDS011;67538;52.180;5.646;2023-08-20T04:50:04;22.10;;;11.82;;
22248;SDS011;67538;52.180;5.646;2023-08-20T04:52:32;16.88;;;10.00;;
22248;SDS011;67538;52.180;5.646;2023-08-20T04:55:01;12.47;;;9.53;;
22248;SDS011;67538;52.180;5.646;2023-08-20T04:57:29;15.13;;;10.57;;
22248;SDS011;67538;52.180;5.646;2023-08-20T04:59:56;18.35;;;11.20;;
22248;SDS011;67538;52.180;5.646;2023-08-20T05:02:23;16.75;;;10.63;;
22248;SDS011;67538;52.180;5.646;2023-08-20T05:04:50;18.63;;;11.35;;
22248;SDS011;67538;52.180;5.646;2023-08-20T05:07:18;21.57;;;12.93;;
22248;SDS011;67538;52.180;5.646;2023-08-20T05:09:45;16.48;;;11.95;;
22248;SDS011;67538;52.180;5.646;2023-08-20T05:12:14;16.88;;;11.65;;
22248;SDS011;67538;52.180;5.646;2023-08-20T05:14:41;18.60;;;12.00;;
22248;SDS011;67538;52.180;5.646;2023-08-20T05:17:08;16.67;;;11.70;;
22248;SDS011;67538;52.180;5.646;2023-08-20T05:19:35;16.35;;;11.75;;
22248;SDS011;67538;52.180;5.646;2023-08-20T05:22:02;19.45;;;11.38;;
22248;SDS011;67538;52.180;5.646;2023-08-20T05:24:29;25.83;;;14.05;;
22248;SDS011;67538;52.180;5.646;2023-08-20T05:27:08;24.25;;;13.40;;
22248;SDS011;67538;52.180;5.646;2023-08-20T05:29:40;20.45;;;12.38;;
22248;SDS011;67538;52.180;5.646;2023-08-20T05:32:07;24.52;;;12.55;;
22248;SDS011;67538;52.180;5.646;2023-08-20T05:34:34;23.38;;;11.80;;
22248;SDS011;67538;52.180;5.646;2023-08-20T05:37:02;19.92;;;11.18;;
22248;SDS011;67538;52.180;5.646;2023-08-20T05:39:29;26.15;;;12.00;;
22248;SDS011;67538;52.180;5.646;2023-08-20T05:41:57;23.67;;;11.73;;
22248;SDS011;67538;52.180;5.646;2023-08-20T05:44:24;21.57;;;11.03;;
22248;SDS011;67538;52.180;5.646;2023-08-20T05:46:52;20.87;;;11.10;;
22248;SDS011;67538;52.180;5.646;2023-08-20T05:49:19;22.00;;;10.98;;
22248;SDS011;67538;52.180;5.646;2023-08-20T05:51:46;20.77;;;10.52;;
22248;SDS011;67538;52.180;5.646;2023-08-20T05:54:13;19.05;;;8.98;;
22248;SDS011;67538;52.180;5.646;2023-08-20T05:56:40;21.35;;;9.02;;
22248;SDS011;67538;52.180;5.646;2023-08-20T05:59:07;18.30;;;8.45;;
22248;SDS011;67538;52.180;5.646;2023-08-20T06:01:34;21.08;;;8.75;;
22248;SDS011;67538;52.180;5.646;2023-08-20T06:04:03;21.58;;;7.75;;
22248;SDS011;67538;52.180;5.646;2023-08-20T06:06:30;15.43;;;6.72;;
22248;SDS011;67538;52.180;5.646;2023-08-20T06:08:57;21.10;;;7.05;;
22248;SDS011;67538;52.180;5.646;2023-08-20T06:11:24;17.25;;;6.50;;
22248;SDS011;67538;52.180;5.646;2023-08-20T06:13:51;16.20;;;5.78;;
22248;SDS011;67538;52.180;5.646;2023-08-20T06:16:18;15.82;;;5.63;;
22248;SDS011;67538;52.180;5.646;2023-08-20T06:18:45;16.10;;;5.45;;
22248;SDS011;67538;52.180;5.646;2023-08-20T06:21:14;18.10;;;5.72;;
22248;SDS011;67538;52.180;5.646;2023-08-20T06:23:41;18.00;;;5.20;;
22248;SDS011;67538;52.180;5.646;2023-08-20T06:26:08;15.30;;;4.78;;
22248;SDS011;67538;52.180;5.646;2023-08-20T06:28:35;15.30;;;4.88;;
22248;SDS011;67538;52.180;5.646;2023-08-20T06:31:03;17.42;;;4.90;;
22248;SDS011;67538;52.180;5.646;2023-08-20T06:33:30;11.93;;;4.40;;
22248;SDS011;67538;52.180;5.646;2023-08-20T06:35:57;16.88;;;4.38;;
22248;SDS011;67538;52.180;5.646;2023-08-20T06:38:25;16.27;;;4.55;;
22248;SDS011;67538;52.180;5.646;2023-08-20T06:40:52;16.67;;;4.17;;
22248;SDS011;67538;52.180;5.646;2023-08-20T06:43:19;12.27;;;3.70;;
22248;SDS011;67538;52.180;5.646;2023-08-20T06:45:46;14.13;;;4.30;;
22248;SDS011;67538;52.180;5.646;2023-08-20T06:48:13;12.20;;;4.03;;
22248;SDS011;67538;52.180;5.646;2023-08-20T06:50:41;13.75;;;4.43;;
22248;SDS011;67538;52.180;5.646;2023-08-20T06:53:08;14.88;;;4.20;;
22248;SDS011;67538;52.180;5.646;2023-08-20T06:55:37;14.52;;;4.32;;
22248;SDS011;67538;52.180;5.646;2023-08-20T06:58:04;15.02;;;4.03;;
22248;SDS011;67538;52.180;5.646;2023-08-20T07:00:31;15.38;;;4.30;;
22248;SDS011;67538;52.180;5.646;2023-08-20T07:02:58;15.10;;;4.00;;
22248;SDS011;67538;52.180;5.646;2023-08-20T07:05:25;18.33;;;4.10;;
22248;SDS011;67538;52.180;5.646;2023-08-20T07:07:52;15.53;;;4.10;;
22248;SDS011;67538;52.180;5.646;2023-08-20T07:10:19;11.67;;;3.63;;
22248;SDS011;67538;52.180;5.646;2023-08-20T07:12:47;11.57;;;3.80;;
22248;SDS011;67538;52.180;5.646;2023-08-20T07:15:14;14.65;;;3.75;;
22248;SDS011;67538;52.180;5.646;2023-08-20T07:17:41;14.55;;;3.65;;
22248;SDS011;67538;52.180;5.646;2023-08-20T07:20:09;13.25;;;3.83;;
22248;SDS011;67538;52.180;5.646;2023-08-20T07:22:36;14.60;;;3.47;;
22248;SDS011;67538;52.180;5.646;2023-08-20T07:25:03;16.40;;;3.83;;
22248;SDS011;67538;52.180;5.646;2023-08-20T07:27:30;11.48;;;3.22;;
22248;SDS011;67538;52.180;5.646;2023-08-20T07:29:59;15.90;;;4.07;;
22248;SDS011;67538;52.180;5.646;2023-08-20T07:32:26;15.15;;;3.97;;
22248;SDS011;67538;52.180;5.646;2023-08-20T07:34:53;14.90;;;3.67;;
22248;SDS011;67538;52.180;5.646;2023-08-20T07:37:20;13.18;;;4.00;;
22248;SDS011;67538;52.180;5.646;2023-08-20T07:39:47;10.48;;;3.45;;
22248;SDS011;67538;52.180;5.646;2023-08-20T07:42:14;16.58;;;4.05;;
22248;SDS011;67538;52.180;5.646;2023-08-20T07:44:43;15.07;;;3.38;;
22248;SDS011;67538;52.180;5.646;2023-08-20T07:47:11;13.55;;;3.17;;
22248;SDS011;67538;52.180;5.646;2023-08-20T07:49:38;11.15;;;2.90;;
22248;SDS011;67538;52.180;5.646;2023-08-20T07:52:05;15.80;;;3.40;;
22248;SDS011;67538;52.180;5.646;2023-08-20T07:54:32;14.00;;;3.58;;
22248;SDS011;67538;52.180;5.646;2023-08-20T07:57:00;14.27;;;3.75;;
22248;SDS011;67538;52.180;5.646;2023-08-20T07:59:26;14.40;;;3.25;;
22248;SDS011;67538;52.180;5.646;2023-08-20T08:01:54;14.60;;;2.90;;
22248;SDS011;67538;52.180;5.646;2023-08-20T08:04:22;12.05;;;2.75;;
22248;SDS011;67538;52.180;5.646;2023-08-20T08:06:49;10.32;;;2.70;;
22248;SDS011;67538;52.180;5.646;2023-08-20T08:09:18;11.43;;;2.47;;
22248;SDS011;67538;52.180;5.646;2023-08-20T08:11:46;13.43;;;2.60;;
22248;SDS011;67538;52.180;5.646;2023-08-20T08:14:14;13.00;;;2.53;;
22248;SDS011;67538;52.180;5.646;2023-08-20T08:16:41;11.50;;;2.53;;
22248;SDS011;67538;52.180;5.646;2023-08-20T08:19:08;11.77;;;2.40;;
22248;SDS011;67538;52.180;5.646;2023-08-20T08:21:37;13.75;;;2.60;;
22248;SDS011;67538;52.180;5.646;2023-08-20T08:24:04;10.57;;;2.28;;
22248;SDS011;67538;52.180;5.646;2023-08-20T08:26:33;15.38;;;2.20;;
22248;SDS011;67538;52.180;5.646;2023-08-20T08:29:00;11.00;;;2.70;;
22248;SDS011;67538;52.180;5.646;2023-08-20T08:31:27;7.53;;;2.00;;
22248;SDS011;67538;52.180;5.646;2023-08-20T08:33:54;9.82;;;1.90;;
22248;SDS011;67538;52.180;5.646;2023-08-20T08:36:21;7.97;;;1.98;;
22248;SDS011;67538;52.180;5.646;2023-08-20T08:38:51;9.68;;;2.33;;
22248;SDS011;67538;52.180;5.646;2023-08-20T08:41:20;18.42;;;2.50;;
22248;SDS011;67538;52.180;5.646;2023-08-20T08:43:49;10.45;;;1.88;;
22248;SDS011;67538;52.180;5.646;2023-08-20T08:46:16;12.43;;;2.22;;
22248;SDS011;67538;52.180;5.646;2023-08-20T08:48:45;7.27;;;1.50;;
22248;SDS011;67538;52.180;5.646;2023-08-20T08:51:12;8.10;;;1.70;;
22248;SDS011;67538;52.180;5.646;2023-08-20T08:53:41;9.70;;;1.80;;
22248;SDS011;67538;52.180;5.646;2023-08-20T08:56:11;80.30;;;4.47;;
22248;SDS011;67538;52.180;5.646;2023-08-20T08:58:38;14.63;;;2.10;;
22248;SDS011;67538;52.180;5.646;2023-08-20T09:01:05;11.07;;;1.73;;
22248;SDS011;67538;52.180;5.646;2023-08-20T09:03:32;8.15;;;1.70;;
22248;SDS011;67538;52.180;5.646;2023-08-20T09:05:59;8.45;;;1.92;;
22248;SDS011;67538;52.180;5.646;2023-08-20T09:08:28;9.20;;;1.90;;
22248;SDS011;67538;52.180;5.646;2023-08-20T09:10:57;7.95;;;1.50;;
22248;SDS011;67538;52.180;5.646;2023-08-20T09:13:33;10.15;;;1.90;;
22248;SDS011;67538;52.180;5.646;2023-08-20T09:16:02;8.23;;;1.80;;
22248;SDS011;67538;52.180;5.646;2023-08-20T09:18:30;10.38;;;1.83;;
22248;SDS011;67538;52.180;5.646;2023-08-20T09:20:58;6.23;;;1.40;;
22248;SDS011;67538;52.180;5.646;2023-08-20T09:23:28;8.10;;;1.50;;
22248;SDS011;67538;52.180;5.646;2023-08-20T09:25:55;4.67;;;1.30;;
22248;SDS011;67538;52.180;5.646;2023-08-20T09:28:23;7.00;;;1.50;;
22248;SDS011;67538;52.180;5.646;2023-08-20T09:30:58;5.47;;;1.40;;
22248;SDS011;67538;52.180;5.646;2023-08-20T09:33:27;4.40;;;1.10;;
22248;SDS011;67538;52.180;5.646;2023-08-20T09:35:55;6.75;;;1.27;;
22248;SDS011;67538;52.180;5.646;2023-08-20T09:38:23;9.20;;;1.35;;
22248;SDS011;67538;52.180;5.646;2023-08-20T09:40:51;6.15;;;1.20;;
22248;SDS011;67538;52.180;5.646;2023-08-20T09:43:21;6.63;;;1.20;;
22248;SDS011;67538;52.180;5.646;2023-08-20T09:45:51;6.88;;;1.42;;
22248;SDS011;67538;52.180;5.646;2023-08-20T09:48:22;7.57;;;1.50;;
22248;SDS011;67538;52.180;5.646;2023-08-20T09:50:51;7.93;;;1.33;;
22248;SDS011;67538;52.180;5.646;2023-08-20T09:53:25;9.68;;;1.35;;
22248;SDS011;67538;52.180;5.646;2023-08-20T09:55:56;7.60;;;1.73;;
22248;SDS011;67538;52.180;5.646;2023-08-20T09:58:30;4.35;;;1.17;;
22248;SDS011;67538;52.180;5.646;2023-08-20T10:00:58;7.53;;;1.13;;
22248;SDS011;67538;52.180;5.646;2023-08-20T10:03:27;7.70;;;1.60;;
22248;SDS011;67538;52.180;5.646;2023-08-20T10:05:54;5.45;;;1.23;;
22248;SDS011;67538;52.180;5.646;2023-08-20T10:08:23;6.88;;;1.27;;
22248;SDS011;67538;52.180;5.646;2023-08-20T10:10:51;4.90;;;1.10;;
22248;SDS011;67538;52.180;5.646;2023-08-20T10:13:18;3.95;;;1.10;;
22248;SDS011;67538;52.180;5.646;2023-08-20T10:15:45;5.53;;;1.23;;
22248;SDS011;67538;52.180;5.646;2023-08-20T10:18:12;5.80;;;1.50;;
22248;SDS011;67538;52.180;5.646;2023-08-20T10:20:41;4.75;;;1.20;;
22248;SDS011;67538;52.180;5.646;2023-08-20T10:23:08;6.55;;;1.25;;
22248;SDS011;67538;52.180;5.646;2023-08-20T10:25:42;7.00;;;1.43;;
22248;SDS011;67538;52.180;5.646;2023-08-20T10:28:12;6.43;;;1.10;;
22248;SDS011;67538;52.180;5.646;2023-08-20T10:33:33;4.87;;;1.30;;
22248;SDS011;67538;52.180;5.646;2023-08-20T10:36:09;7.60;;;1.40;;
22248;SDS011;67538;52.180;5.646;2023-08-20T10:38:39;7.28;;;1.15;;
22248;SDS011;67538;52.180;5.646;2023-08-20T10:41:06;7.07;;;1.40;;
22248;SDS011;67538;52.180;5.646;2023-08-20T10:43:34;3.80;;;0.85;;
22248;SDS011;67538;52.180;5.646;2023-08-20T10:46:04;5.93;;;1.10;;
22248;SDS011;67538;52.180;5.646;2023-08-20T10:48:32;4.68;;;1.20;;
22248;SDS011;67538;52.180;5.646;2023-08-20T10:51:05;6.97;;;1.30;;
22248;SDS011;67538;52.180;5.646;2023-08-20T10:53:39;5.35;;;0.98;;
22248;SDS011;67538;52.180;5.646;2023-08-20T10:56:10;6.15;;;1.17;;
22248;SDS011;67538;52.180;5.646;2023-08-20T10:58:40;5.15;;;1.20;;
22248;SDS011;67538;52.180;5.646;2023-08-20T11:01:14;5.65;;;1.20;;
22248;SDS011;67538;52.180;5.646;2023-08-20T11:03:43;5.03;;;1.05;;
22248;SDS011;67538;52.180;5.646;2023-08-20T11:06:12;6.65;;;0.95;;
22248;SDS011;67538;52.180;5.646;2023-08-20T11:08:39;3.43;;;0.80;;
22248;SDS011;67538;52.180;5.646;2023-08-20T11:11:06;5.50;;;1.00;;
22248;SDS011;67538;52.180;5.646;2023-08-20T11:13:34;6.93;;;1.30;;
22248;SDS011;67538;52.180;5.646;2023-08-20T11:16:01;4.55;;;1.10;;
22248;SDS011;67538;52.180;5.646;2023-08-20T11:18:29;6.63;;;1.08;;
22248;SDS011;67538;52.180;5.646;2023-08-20T11:20:59;9.90;;;1.38;;
22248;SDS011;67538;52.180;5.646;2023-08-20T11:23:27;4.60;;;1.02;;
22248;SDS011;67538;52.180;5.646;2023-08-20T11:25:55;5.87;;;1.10;;
22248;SDS011;67538;52.180;5.646;2023-08-20T11:28:22;5.97;;;1.23;;
22248;SDS011;67538;52.180;5.646;2023-08-20T11:30:52;4.90;;;1.15;;
22248;SDS011;67538;52.180;5.646;2023-08-20T11:33:20;6.50;;;1.45;;
22248;SDS011;67538;52.180;5.646;2023-08-20T11:35:48;4.55;;;1.13;;
22248;SDS011;67538;52.180;5.646;2023-08-20T11:38:15;5.93;;;1.20;;
22248;SDS011;67538;52.180;5.646;2023-08-20T11:40:43;4.63;;;1.00;;
22248;SDS011;67538;52.180;5.646;2023-08-20T11:43:10;4.35;;;1.00;;
22248;SDS011;67538;52.180;5.646;2023-08-20T11:45:44;6.35;;;1.20;;
22248;SDS011;67538;52.180;5.646;2023-08-20T11:48:12;4.43;;;1.10;;
22248;SDS011;67538;52.180;5.646;2023-08-20T11:50:39;6.72;;;1.30;;
22248;SDS011;67538;52.180;5.646;2023-08-20T11:53:07;4.57;;;1.05;;
22248;SDS011;67538;52.180;5.646;2023-08-20T11:55:35;4.28;;;1.00;;
22248;SDS011;67538;52.180;5.646;2023-08-20T11:58:09;11.00;;;1.95;;
22248;SDS011;67538;52.180;5.646;2023-08-20T12:00:38;5.25;;;0.98;;
22248;SDS011;67538;52.180;5.646;2023-08-20T12:03:05;4.85;;;0.95;;
22248;SDS011;67538;52.180;5.646;2023-08-20T12:05:33;7.30;;;1.10;;
22248;SDS011;67538;52.180;5.646;2023-08-20T12:08:01;9.20;;;1.17;;
22248;SDS011;67538;52.180;5.646;2023-08-20T12:10:30;5.38;;;0.93;;
22248;SDS011;67538;52.180;5.646;2023-08-20T12:12:58;4.28;;;1.00;;
22248;SDS011;67538;52.180;5.646;2023-08-20T12:15:27;5.57;;;1.13;;
22248;SDS011;67538;52.180;5.646;2023-08-20T12:18:00;8.13;;;1.40;;
22248;SDS011;67538;52.180;5.646;2023-08-20T12:20:30;6.38;;;1.00;;
22248;SDS011;67538;52.180;5.646;2023-08-20T12:22:58;7.32;;;1.13;;
22248;SDS011;67538;52.180;5.646;2023-08-20T12:25:26;7.03;;;1.30;;
22248;SDS011;67538;52.180;5.646;2023-08-20T12:27:56;5.22;;;1.02;;
22248;SDS011;67538;52.180;5.646;2023-08-20T12:30:23;7.00;;;1.20;;
22248;SDS011;67538;52.180;5.646;2023-08-20T12:32:51;5.43;;;1.25;;
22248;SDS011;67538;52.180;5.646;2023-08-20T12:35:18;5.45;;;1.20;;
22248;SDS011;67538;52.180;5.646;2023-08-20T12:37:46;3.90;;;1.03;;
22248;SDS011;67538;52.180;5.646;2023-08-20T12:40:13;5.88;;;1.10;;
22248;SDS011;67538;52.180;5.646;2023-08-20T12:42:40;5.25;;;1.17;;
22248;SDS011;67538;52.180;5.646;2023-08-20T12:45:07;7.05;;;1.40;;
22248;SDS011;67538;52.180;5.646;2023-08-20T12:47:35;3.72;;;1.10;;
22248;SDS011;67538;52.180;5.646;2023-08-20T12:50:04;4.37;;;1.00;;
22248;SDS011;67538;52.180;5.646;2023-08-20T12:52:32;5.95;;;1.10;;
22248;SDS011;67538;52.180;5.646;2023-08-20T12:54:59;6.43;;;1.10;;
22248;SDS011;67538;52.180;5.646;2023-08-20T12:57:27;6.72;;;1.20;;
22248;SDS011;67538;52.180;5.646;2023-08-20T12:59:54;7.50;;;1.10;;
22248;SDS011;67538;52.180;5.646;2023-08-20T13:02:21;7.57;;;1.10;;
22248;SDS011;67538;52.180;5.646;2023-08-20T13:04:48;5.38;;;1.02;;
22248;SDS011;67538;52.180;5.646;2023-08-20T13:07:17;4.88;;;1.10;;
22248;SDS011;67538;52.180;5.646;2023-08-20T13:09:45;5.90;;;1.17;;
22248;SDS011;67538;52.180;5.646;2023-08-20T13:12:12;3.13;;;1.00;;
22248;SDS011;67538;52.180;5.646;2023-08-20T13:14:40;4.90;;;0.90;;
22248;SDS011;67538;52.180;5.646;2023-08-20T13:17:08;4.95;;;0.90;;
22248;SDS011;67538;52.180;5.646;2023-08-20T13:19:36;4.93;;;1.00;;
22248;SDS011;67538;52.180;5.646;2023-08-20T13:22:03;5.00;;;1.00;;
22248;SDS011;67538;52.180;5.646;2023-08-20T13:24:32;4.75;;;0.98;;
22248;SDS011;67538;52.180;5.646;2023-08-20T13:26:59;6.18;;;1.15;;
22248;SDS011;67538;52.180;5.646;2023-08-20T13:29:26;4.85;;;0.90;;
22248;SDS011;67538;52.180;5.646;2023-08-20T13:31:53;4.57;;;1.17;;
22248;SDS011;67538;52.180;5.646;2023-08-20T13:34:20;5.65;;;1.20;;
22248;SDS011;67538;52.180;5.646;2023-08-20T13:36:47;7.30;;;1.13;;
22248;SDS011;67538;52.180;5.646;2023-08-20T13:39:14;2.50;;;0.70;;
22248;SDS011;67538;52.180;5.646;2023-08-20T13:41:45;6.28;;;1.10;;
22248;SDS011;67538;52.180;5.646;2023-08-20T13:44:15;5.93;;;1.50;;
22248;SDS011;67538;52.180;5.646;2023-08-20T13:46:42;7.10;;;1.08;;
22248;SDS011;67538;52.180;5.646;2023-08-20T13:49:09;4.47;;;0.97;;
22248;SDS011;67538;52.180;5.646;2023-08-20T13:51:36;6.88;;;1.20;;
22248;SDS011;67538;52.180;5.646;2023-08-20T13:54:03;4.18;;;1.00;;
22248;SDS011;67538;52.180;5.646;2023-08-20T13:56:30;5.20;;;0.97;;
22248;SDS011;67538;52.180;5.646;2023-08-20T13:58:59;6.90;;;1.10;;
22248;SDS011;67538;52.180;5.646;2023-08-20T14:01:26;6.43;;;1.02;;
22248;SDS011;67538;52.180;5.646;2023-08-20T14:03:53;3.87;;;0.90;;
22248;SDS011;67538;52.180;5.646;2023-08-20T14:06:20;3.87;;;1.00;;
22248;SDS011;67538;52.180;5.646;2023-08-20T14:08:47;5.28;;;1.00;;
22248;SDS011;67538;52.180;5.646;2023-08-20T14:11:14;7.50;;;1.30;;
22248;SDS011;67538;52.180;5.646;2023-08-20T14:13:41;5.72;;;1.15;;
22248;SDS011;67538;52.180;5.646;2023-08-20T14:16:10;6.22;;;1.10;;
22248;SDS011;67538;52.180;5.646;2023-08-20T14:18:37;5.85;;;1.10;;
22248;SDS011;67538;52.180;5.646;2023-08-20T14:21:04;5.20;;;1.17;;
22248;SDS011;67538;52.180;5.646;2023-08-20T14:23:31;4.47;;;0.98;;
22248;SDS011;67538;52.180;5.646;2023-08-20T14:25:58;7.80;;;1.10;;
22248;SDS011;67538;52.180;5.646;2023-08-20T14:28:25;6.90;;;1.00;;
22248;SDS011;67538;52.180;5.646;2023-08-20T14:30:52;5.78;;;1.00;;
22248;SDS011;67538;52.180;5.646;2023-08-20T14:33:21;6.13;;;1.30;;
22248;SDS011;67538;52.180;5.646;2023-08-20T14:35:48;5.70;;;1.20;;
22248;SDS011;67538;52.180;5.646;2023-08-20T14:38:16;5.18;;;1.15;;
22248;SDS011;67538;52.180;5.646;2023-08-20T14:40:43;5.25;;;1.35;;
22248;SDS011;67538;52.180;5.646;2023-08-20T14:43:10;5.38;;;0.90;;
22248;SDS011;67538;52.180;5.646;2023-08-20T14:45:37;4.82;;;1.08;;